createdAt,value
2022-08-16T00:04:42.387Z,22.27
2022-08-16T00:10:07.842Z,22.21
2022-08-16T00:15:52.113Z,22.16
2022-08-16T00:21:21.259Z,22.12
2022-08-16T00:26:43.794Z,22.05
2022-08-16T00:32:13.515Z,22.02
2022-08-16T00:37:58.765Z,21.96
2022-08-16T00:43:19.386Z,21.94
2022-08-16T00:48:43.838Z,21.91
2022-08-16T00:53:56.804Z,21.86
2022-08-16T00:59:27.687Z,21.81
2022-08-16T01:04:44.280Z,21.79
2022-08-16T01:10:34.899Z,21.81
2022-08-16T01:15:58.441Z,21.77
2022-08-16T01:21:36.439Z,21.66
2022-08-16T01:27:11.790Z,21.57
2022-08-16T01:32:39.041Z,21.53
2022-08-16T01:37:57.089Z,21.53
2022-08-16T01:43:09.603Z,21.50
2022-08-16T01:48:32.469Z,21.47
2022-08-16T01:53:55.319Z,21.44
2022-08-16T01:59:30.618Z,21.48
2022-08-16T02:04:54.453Z,21.47
2022-08-16T02:10:17.595Z,21.40
2022-08-16T02:15:44.534Z,21.30
2022-08-16T02:21:01.926Z,21.17
2022-08-16T02:26:15.870Z,21.08
2022-08-16T02:32:02.748Z,21.11
2022-08-16T02:37:51.247Z,21.13
2022-08-16T02:42:57.665Z,21.10
2022-08-16T02:48:28.884Z,21.02
2022-08-16T02:53:51.799Z,20.94
2022-08-16T02:59:15.459Z,20.88
2022-08-16T03:04:50.874Z,20.85
2022-08-16T03:10:19.963Z,20.88
2022-08-16T03:15:49.710Z,20.79
2022-08-16T03:20:59.985Z,20.75
2022-08-16T03:26:32.163Z,20.76
2022-08-16T03:31:59.643Z,20.70
2022-08-16T03:37:11.843Z,20.72
2022-08-16T03:42:34.331Z,20.76
2022-08-16T03:48:21.068Z,20.73
2022-08-16T03:54:01.070Z,20.69
2022-08-16T03:59:10.956Z,20.77
2022-08-16T04:04:42.011Z,20.80
2022-08-16T04:10:36.854Z,20.78
2022-08-16T04:16:06.551Z,20.77
2022-08-16T04:21:29.507Z,20.90
2022-08-16T04:26:57.377Z,21.10
2022-08-16T04:32:09.809Z,21.30
2022-08-16T04:37:42.265Z,21.50
2022-08-16T04:43:11.190Z,21.66
2022-08-16T04:48:35.281Z,21.85
2022-08-16T04:53:50.685Z,22.02
2022-08-16T04:59:02.311Z,22.27
2022-08-16T05:04:19.527Z,22.49
2022-08-16T05:09:28.980Z,22.69
2022-08-16T05:15:21.816Z,22.97
2022-08-16T05:20:45.536Z,23.17
2022-08-16T05:26:04.690Z,23.43
2022-08-16T05:31:16.666Z,23.70
2022-08-16T05:36:37.086Z,23.80
2022-08-16T05:41:46.350Z,23.83
2022-08-16T05:47:02.846Z,24.00
2022-08-16T05:52:22.832Z,24.27
2022-08-16T05:57:41.923Z,24.61
2022-08-16T06:03:04.326Z,24.88
2022-08-16T06:08:46.453Z,25.26
2022-08-16T06:13:57.672Z,25.70
2022-08-16T06:19:18.239Z,26.02
2022-08-16T06:24:54.280Z,26.29
2022-08-16T06:30:03.180Z,26.54
2022-08-16T06:35:16.874Z,27.00
2022-08-16T06:40:33.507Z,27.41
2022-08-16T06:45:44.272Z,27.62
2022-08-16T06:51:09.101Z,28.02
2022-08-16T06:56:22.961Z,28.51
2022-08-16T07:01:53.570Z,29.08
2022-08-16T07:07:14.570Z,29.72
2022-08-16T07:12:47.131Z,30.29
2022-08-16T07:17:53.677Z,30.77
2022-08-16T07:23:01.431Z,31.05
2022-08-16T07:28:20.713Z,31.35
2022-08-16T07:33:52.683Z,31.76
2022-08-16T07:39:08.949Z,32.14
2022-08-16T07:44:18.464Z,32.38
2022-08-16T07:49:32.518Z,32.60
2022-08-16T07:54:45.730Z,32.86
2022-08-16T08:00:00.940Z,33.51
2022-08-16T08:05:35.322Z,33.82
2022-08-16T08:10:51.565Z,34.00
2022-08-16T08:16:19.076Z,34.00
2022-08-16T08:21:58.511Z,34.35
2022-08-16T08:27:02.187Z,34.55
2022-08-16T08:32:57.920Z,34.63
2022-08-16T08:37:55.246Z,34.41
2022-08-16T08:43:12.243Z,34.36
2022-08-16T08:48:34.189Z,33.92
2022-08-16T08:53:57.930Z,33.67
2022-08-16T08:59:19.684Z,33.21
2022-08-16T09:04:40.832Z,32.72
2022-08-16T09:09:48.559Z,32.13
2022-08-16T09:15:13.831Z,31.72
2022-08-16T09:20:25.598Z,31.32
2022-08-16T09:25:40.554Z,30.96
2022-08-16T09:30:54.567Z,30.83
2022-08-16T09:36:02.391Z,30.98
2022-08-16T09:41:31.926Z,30.94
2022-08-16T09:46:48.860Z,30.93
2022-08-16T09:52:06.204Z,30.80
2022-08-16T09:57:17.136Z,30.69
2022-08-16T10:02:27.989Z,30.63
2022-08-16T10:07:45.096Z,30.60
2022-08-16T10:13:14.473Z,30.71
2022-08-16T10:19:00.154Z,30.74
2022-08-16T10:23:56.050Z,30.72
2022-08-16T10:29:04.769Z,30.74
2022-08-16T10:34:30.785Z,30.62
2022-08-16T10:39:41.492Z,30.69
2022-08-16T10:44:53.606Z,30.66
2022-08-16T10:50:05.072Z,30.76
2022-08-16T11:00:57.538Z,30.79
2022-08-16T11:06:07.547Z,30.50
2022-08-16T11:11:20.145Z,30.25
2022-08-16T11:17:02.690Z,30.17
2022-08-16T11:22:38.407Z,30.31
2022-08-16T11:27:35.405Z,30.35
2022-08-16T11:32:45.226Z,30.47
2022-08-16T11:38:47.090Z,30.55
2022-08-16T11:43:36.251Z,30.63
2022-08-16T11:48:46.828Z,30.73
2022-08-16T11:54:09.028Z,30.78
2022-08-16T11:59:29.515Z,30.87
2022-08-16T12:04:52.050Z,31.06
2022-08-16T12:10:04.300Z,31.23
2022-08-16T12:15:17.522Z,31.31
2022-08-16T12:20:27.913Z,31.36
2022-08-16T12:25:38.161Z,31.42
2022-08-16T12:30:55.702Z,31.40
2022-08-16T12:36:03.012Z,31.33
2022-08-16T12:41:11.708Z,31.27
2022-08-16T12:46:19.184Z,31.12
2022-08-16T12:51:58.435Z,30.87
2022-08-16T12:57:06.965Z,30.52
2022-08-16T13:02:33.598Z,30.02
2022-08-16T13:07:51.266Z,29.64
2022-08-16T13:13:02.243Z,29.01
2022-08-16T13:18:27.113Z,28.08
2022-08-16T13:23:51.265Z,27.08
2022-08-16T13:29:08.621Z,26.04
2022-08-16T13:34:18.440Z,24.87
2022-08-16T13:39:26.753Z,23.66
2022-08-16T13:44:50.775Z,22.78
2022-08-16T13:50:13.237Z,22.20
2022-08-16T13:55:41.096Z,21.77
2022-08-16T14:00:48.981Z,21.56
2022-08-16T14:06:06.423Z,21.50
2022-08-16T14:11:16.095Z,21.45
2022-08-16T14:16:37.635Z,21.30
2022-08-16T14:21:56.537Z,21.22
2022-08-16T14:27:04.971Z,21.27
2022-08-16T14:32:22.025Z,21.37
2022-08-16T14:37:52.585Z,21.49
2022-08-16T14:43:15.444Z,21.59
2022-08-16T14:48:26.744Z,21.68
2022-08-16T14:53:39.011Z,21.70
2022-08-16T14:59:13.407Z,21.75
2022-08-16T15:04:39.653Z,21.84
2022-08-16T15:10:00.909Z,21.89
2022-08-16T15:15:16.535Z,21.96
2022-08-16T15:20:29.523Z,21.96
2022-08-16T15:25:41.736Z,21.90
2022-08-16T15:30:59.494Z,21.87
2022-08-16T15:36:12.401Z,21.88
2022-08-16T15:42:04.269Z,21.94
2022-08-16T15:47:18.231Z,22.02
2022-08-16T15:52:29.749Z,22.02
2022-08-16T15:57:51.208Z,22.00
2022-08-16T16:03:09.152Z,22.03
2022-08-16T16:08:24.001Z,22.09
2022-08-16T16:13:41.574Z,22.15
2022-08-16T16:18:52.322Z,22.22
2022-08-16T16:24:03.126Z,22.26
2022-08-16T16:29:40.397Z,22.40
2022-08-16T16:34:50.798Z,22.42
2022-08-16T16:40:03.157Z,22.49
2022-08-16T16:45:18.765Z,22.55
2022-08-16T16:50:27.672Z,22.49
2022-08-16T16:55:51.568Z,22.48
2022-08-16T17:00:59.977Z,22.51
2022-08-16T17:06:10.608Z,22.56
2022-08-16T17:11:18.107Z,22.62
2022-08-16T17:16:32.948Z,22.65
2022-08-16T17:21:56.388Z,22.71
2022-08-16T17:27:08.979Z,22.73
2022-08-16T17:32:34.293Z,22.86
2022-08-16T17:38:11.258Z,22.94
2022-08-16T17:43:44.437Z,22.89
2022-08-16T17:48:52.408Z,22.87
2022-08-16T17:54:00.041Z,22.88
2022-08-16T17:59:15.888Z,22.82
2022-08-16T18:04:49.761Z,22.72
2022-08-16T18:10:32.672Z,22.56
2022-08-16T18:15:42.440Z,22.48
2022-08-16T18:21:27.728Z,22.44
2022-08-16T18:26:46.483Z,22.35
2022-08-16T18:31:57.138Z,22.23
2022-08-16T18:37:04.997Z,22.17
2022-08-16T18:42:23.483Z,22.24
2022-08-16T18:47:29.281Z,22.06
2022-08-16T18:52:58.814Z,21.84
2022-08-16T18:58:17.469Z,21.72
2022-08-16T19:03:26.790Z,21.61
2022-08-16T19:08:47.259Z,21.51
2022-08-16T19:13:57.713Z,21.37
2022-08-16T19:19:08.001Z,21.35
2022-08-16T19:24:18.478Z,21.27
2022-08-16T19:29:28.468Z,21.20
2022-08-16T19:34:41.660Z,21.15
2022-08-16T19:40:37.067Z,21.06
2022-08-16T19:45:45.827Z,20.97
2022-08-16T19:50:56.659Z,20.80
2022-08-16T19:56:06.743Z,20.62
2022-08-16T20:01:15.634Z,20.51
2022-08-16T20:06:37.631Z,20.47
2022-08-16T20:12:12.004Z,20.47
2022-08-16T20:17:42.513Z,20.46
2022-08-16T20:23:24.131Z,20.41
2022-08-16T20:28:53.833Z,20.31
2022-08-16T20:34:36.087Z,20.31
2022-08-16T20:40:28.188Z,20.28
2022-08-16T20:45:57.726Z,20.24
2022-08-16T20:51:24.044Z,20.12
2022-08-16T20:56:42.025Z,20.05
2022-08-16T21:01:58.023Z,20.00
2022-08-16T21:07:12.918Z,19.99
2022-08-16T21:12:58.319Z,19.91
2022-08-16T21:18:19.842Z,19.89
2022-08-16T21:23:50.769Z,19.88
2022-08-16T21:29:11.369Z,19.87
2022-08-16T21:34:34.010Z,19.85
2022-08-16T21:39:46.001Z,19.80
2022-08-16T21:45:10.549Z,19.71
2022-08-16T21:50:47.029Z,19.69
2022-08-16T21:56:06.168Z,19.60
2022-08-16T22:02:01.960Z,19.50
2022-08-16T22:07:30.048Z,19.44
2022-08-16T22:13:06.731Z,19.45
2022-08-16T22:18:22.953Z,19.47
2022-08-16T22:23:57.378Z,19.40
2022-08-16T22:29:19.600Z,19.32
2022-08-16T22:35:15.023Z,19.24
2022-08-16T22:40:46.853Z,19.21
2022-08-16T22:46:06.097Z,19.17
2022-08-16T22:51:55.690Z,19.14
2022-08-16T22:57:37.472Z,19.09
2022-08-16T23:03:11.448Z,19.06
2022-08-16T23:08:46.338Z,19.00
2022-08-16T23:14:07.932Z,18.98
2022-08-16T23:19:30.082Z,18.98
2022-08-16T23:24:56.561Z,18.92
2022-08-16T23:30:15.021Z,18.90
2022-08-16T23:35:45.623Z,18.89
2022-08-16T23:41:09.280Z,18.88
2022-08-16T23:46:40.768Z,18.95
2022-08-16T23:52:13.977Z,19.05
2022-08-16T23:57:34.926Z,19.05
